Time;durP1;ratioP1;P1;durP2;ratioP2;P2;SDS_P1;SDS_P2;PMS_P1;PMS_P2;Temp;Humidity;BMP_temperature;BMP_pressure;BME280_temperature;BME280_humidity;BME280_pressure;Samples;Min_cycle;Max_cycle;Signal;HPM_P1;HPM_P2
2021/05/19 00:01:28;;;;;;;2.10;0.90;;;;;;;12.18;64.25;93654.31;4909217;29;20039;-86
2021/05/19 00:03:53;;;;;;;1.35;0.95;;;;;;;12.16;64.60;93651.19;4908153;29;20047;-88
2021/05/19 00:06:19;;;;;;;5.20;1.00;;;;;;;12.05;64.00;93648.00;4908962;29;20098;-88
2021/05/19 00:08:44;;;;;;;6.53;1.30;;;;;;;12.10;64.02;93655.03;4894079;29;20063;-87
2021/05/19 00:11:10;;;;;;;6.18;1.30;;;;;;;12.02;64.76;93653.88;4898544;29;20049;-88
2021/05/19 00:13:36;;;;;;;1.10;1.00;;;;;;;12.03;65.42;93659.94;4897002;29;20106;-88
2021/05/19 00:16:06;;;;;;;1.30;1.20;;;;;;;11.96;64.71;93657.75;4906113;29;20036;-88
2021/05/19 00:18:31;;;;;;;1.50;1.20;;;;;;;11.91;66.16;93649.91;4909104;29;20048;-88
2021/05/19 00:20:57;;;;;;;1.08;0.90;;;;;;;11.86;65.28;93654.53;4911172;29;20543;-88
2021/05/19 00:23:22;;;;;;;3.40;1.30;;;;;;;11.73;63.83;93633.09;4911746;29;20028;-87
2021/05/19 00:25:47;;;;;;;1.52;1.00;;;;;;;11.68;65.46;93633.16;4909010;29;20119;-88
2021/05/19 00:28:13;;;;;;;2.60;1.20;;;;;;;11.64;64.58;93636.72;4909986;29;20051;-87
2021/05/19 00:30:39;;;;;;;2.35;1.00;;;;;;;11.75;64.59;93658.47;4909943;29;20054;-88
2021/05/19 00:33:05;;;;;;;2.85;1.10;;;;;;;11.73;65.18;93648.97;4910682;29;20046;-87
2021/05/19 00:35:31;;;;;;;1.70;1.17;;;;;;;11.83;65.13;93655.91;4910722;29;20028;-86
2021/05/19 00:37:56;;;;;;;2.85;1.13;;;;;;;11.83;65.31;93655.91;4898782;29;20040;-87
2021/05/19 00:40:21;;;;;;;1.52;1.23;;;;;;;11.81;65.18;93646.69;4909738;29;20054;-87
2021/05/19 00:42:47;;;;;;;1.75;1.23;;;;;;;11.84;64.93;93659.34;4909754;29;20047;-87
2021/05/19 00:45:13;;;;;;;2.70;1.17;;;;;;;11.66;64.89;93629.25;4910971;29;20079;-87
2021/05/19 00:47:42;;;;;;;3.28;1.40;;;;;;;11.64;65.52;93645.44;4911650;29;20032;-87
2021/05/19 00:50:19;;;;;;;2.58;1.10;;;;;;;11.67;65.75;93636.91;4895167;29;20035;-88
2021/05/19 00:52:44;;;;;;;1.20;1.10;;;;;;;11.81;63.86;93652.00;4914082;29;20032;-87
2021/05/19 00:55:11;;;;;;;3.33;1.30;;;;;;;11.84;64.36;93656.69;4896068;29;20374;-88
2021/05/19 00:57:36;;;;;;;3.47;1.40;;;;;;;11.84;65.59;93656.69;4914037;29;20044;-87
2021/05/19 01:00:05;;;;;;;1.67;1.30;;;;;;;11.86;63.69;93665.91;4913643;29;20409;-87
2021/05/19 01:02:30;;;;;;;4.57;1.50;;;;;;;11.92;63.81;93653.34;4915691;28;20032;-86
2021/05/19 01:04:57;;;;;;;2.42;1.27;;;;;;;11.80;63.99;93634.53;4911069;29;20082;-86
2021/05/19 01:07:25;;;;;;;3.92;1.13;;;;;;;11.80;64.69;93630.03;4912008;29;20095;-86
2021/05/19 01:09:51;;;;;;;7.28;1.17;;;;;;;11.88;65.34;93655.78;4914018;29;20189;-87
2021/05/19 01:12:22;;;;;;;7.65;2.05;;;;;;;11.82;66.02;93648.28;4913237;29;20147;-87
2021/05/19 01:14:50;;;;;;;2.15;1.20;;;;;;;11.70;66.07;93638.16;4914541;29;20528;-88
2021/05/19 01:17:16;;;;;;;4.28;1.00;;;;;;;11.61;65.61;93632.81;4915170;29;20493;-87
2021/05/19 01:19:45;;;;;;;1.27;1.00;;;;;;;11.67;66.11;93650.16;4912192;29;20043;-86
2021/05/19 01:22:21;;;;;;;1.63;1.20;;;;;;;11.44;67.92;93622.06;4895680;29;20036;-87
2021/05/19 01:24:49;;;;;;;2.22;1.35;;;;;;;11.37;68.27;93632.28;4913796;29;20085;-87
2021/05/19 01:27:15;;;;;;;1.73;1.63;;;;;;;11.51;67.52;93654.19;4912382;29;20448;-85
2021/05/19 01:29:41;;;;;;;3.50;1.50;;;;;;;11.42;67.93;93660.50;4913800;29;20104;-84
2021/05/19 01:32:06;;;;;;;3.40;1.80;;;;;;;11.39;67.74;93664.50;4912678;29;20031;-86
2021/05/19 01:34:33;;;;;;;3.35;1.45;;;;;;;11.43;68.15;93656.78;4912778;29;20441;-86
2021/05/19 01:36:58;;;;;;;2.45;1.30;;;;;;;11.32;68.66;93650.91;4913415;29;20177;-88
2021/05/19 01:39:24;;;;;;;1.50;1.40;;;;;;;11.26;67.97;93662.66;4911380;29;20531;-87
2021/05/19 01:41:50;;;;;;;1.95;1.10;;;;;;;11.31;68.80;93662.56;4912757;29;20167;-86
2021/05/19 01:44:18;;;;;;;2.05;1.20;;;;;;;11.11;69.44;93649.72;4913787;29;20030;-88
2021/05/19 01:46:45;;;;;;;2.63;1.40;;;;;;;11.13;69.07;93651.03;4910102;29;20413;-86
2021/05/19 01:49:13;;;;;;;2.13;1.67;;;;;;;11.19;69.52;93651.72;4910507;29;20544;-87
2021/05/19 01:51:39;;;;;;;2.53;1.77;;;;;;;11.14;70.84;93659.75;4892717;29;20039;-87
2021/05/19 01:54:06;;;;;;;3.00;1.50;;;;;;;10.93;70.84;93648.75;4911552;29;20563;-84
2021/05/19 01:56:35;;;;;;;3.83;1.67;;;;;;;10.92;70.76;93641.13;4910960;29;20640;-86
2021/05/19 01:59:01;;;;;;;4.15;1.75;;;;;;;11.06;70.65;93652.47;4912258;29;20106;-87
2021/05/19 02:01:26;;;;;;;1.90;1.27;;;;;;;10.86;70.60;93637.78;4910447;29;20793;-86
2021/05/19 02:04:04;;;;;;;2.58;1.40;;;;;;;10.91;70.76;93647.47;4913073;29;20068;-86
2021/05/19 02:06:51;;;;;;;1.30;1.20;;;;;;;10.93;70.43;93658.56;4895262;29;20074;-89
2021/05/19 02:09:18;;;;;;;1.42;1.30;;;;;;;10.85;70.09;93634.34;4891493;29;20048;-86
2021/05/19 02:11:45;;;;;;;3.25;1.50;;;;;;;11.00;69.92;93654.44;4894118;29;20608;-87
2021/05/19 02:14:11;;;;;;;5.22;1.73;;;;;;;10.92;69.83;93652.47;4894195;29;20191;-86
2021/05/19 02:16:37;;;;;;;3.80;1.40;;;;;;;10.95;69.96;93656.38;4894748;29;20768;-89
2021/05/19 02:19:03;;;;;;;1.65;1.13;;;;;;;10.94;70.08;93646.91;4892461;29;20054;-87
2021/05/19 02:21:28;;;;;;;3.45;1.50;;;;;;;10.94;69.94;93647.69;4886457;29;20438;-87
2021/05/19 02:23:55;;;;;;;4.55;1.27;;;;;;;10.89;69.77;93636.44;4894109;29;20077;-87
2021/05/19 02:26:20;;;;;;;1.73;1.52;;;;;;;10.99;70.02;93638.88;4897314;29;20363;-87
2021/05/19 02:28:46;;;;;;;2.75;1.17;;;;;;;10.81;70.20;93624.66;4893318;29;20039;-87
2021/05/19 02:31:12;;;;;;;1.50;1.40;;;;;;;10.81;71.24;93641.31;4890444;29;20048;-88
2021/05/19 02:33:38;;;;;;;2.25;1.23;;;;;;;10.77;70.84;93640.34;4887907;29;20529;-87
2021/05/19 02:36:04;;;;;;;2.83;1.30;;;;;;;10.74;70.98;93629.56;4890472;29;20489;-87
2021/05/19 02:38:31;;;;;;;1.50;1.23;;;;;;;10.71;71.68;93620.34;4893611;29;20118;-88
2021/05/19 02:40:56;;;;;;;2.45;1.42;;;;;;;10.74;72.32;93624.28;4874080;29;20044;-87
2021/05/19 02:43:22;;;;;;;1.48;1.27;;;;;;;10.68;72.42;93626.25;4891028;29;20047;-88
2021/05/19 02:45:48;;;;;;;2.58;1.30;;;;;;;10.58;71.82;93607.94;4893841;29;20402;-87
2021/05/19 02:48:13;;;;;;;5.65;1.67;;;;;;;10.56;71.94;93598.72;4891740;29;20108;-87
2021/05/19 02:50:39;;;;;;;1.55;1.40;;;;;;;10.53;71.84;93602.72;4895233;29;20044;-88
2021/05/19 02:53:04;;;;;;;2.30;1.40;;;;;;;10.57;72.01;93614.28;4891229;29;20056;-83
2021/05/19 02:55:31;;;;;;;2.33;2.15;;;;;;;10.62;71.54;93608.13;4893380;29;20037;-87
2021/05/19 02:57:57;;;;;;;2.20;1.52;;;;;;;10.66;71.05;93612.53;4875810;29;20048;-87
2021/05/19 03:00:23;;;;;;;15.38;6.30;;;;;;;10.63;72.41;93626.31;4891490;29;20051;-87
2021/05/19 03:02:48;;;;;;;35.80;11.38;;;;;;;10.67;71.87;93622.03;4892113;29;20115;-87
2021/05/19 03:05:14;;;;;;;12.45;4.45;;;;;;;10.62;71.03;93613.41;4896889;29;20502;-86
2021/05/19 03:07:40;;;;;;;12.73;4.38;;;;;;;10.74;71.35;93640.16;4892588;29;20488;-87
2021/05/19 03:10:07;;;;;;;14.93;8.02;;;;;;;10.79;71.70;93643.47;4892232;29;20425;-86
2021/05/19 03:12:32;;;;;;;4.60;2.85;;;;;;;10.92;70.96;93651.69;4893161;29;20624;-87
2021/05/19 03:14:58;;;;;;;3.90;1.92;;;;;;;11.09;70.93;93647.38;4892358;29;20035;-86
2021/05/19 03:17:23;;;;;;;3.35;1.60;;;;;;;11.33;69.96;93644.53;4896416;29;20021;-86
2021/05/19 03:19:49;;;;;;;3.13;1.70;;;;;;;11.37;69.83;93656.09;4894695;29;20040;-87
2021/05/19 03:22:14;;;;;;;3.42;1.30;;;;;;;11.53;69.61;93641.44;4892069;29;20033;-87
2021/05/19 03:24:41;;;;;;;1.55;1.45;;;;;;;11.87;68.36;93645.50;4892232;29;20136;-87
2021/05/19 03:27:07;;;;;;;3.25;1.60;;;;;;;11.91;67.07;93635.88;4891928;29;20466;-89
2021/05/19 03:29:32;;;;;;;3.75;1.98;;;;;;;12.06;68.33;93638.19;4896136;29;20095;-87
2021/05/19 03:31:57;;;;;;;19.40;7.22;;;;;;;12.59;65.57;93644.28;4892193;29;20048;-85
2021/05/19 03:34:23;;;;;;;24.35;9.00;;;;;;;13.09;63.71;93644.03;4892396;29;20660;-87
2021/05/19 03:36:48;;;;;;;1.98;1.50;;;;;;;13.82;60.34;93647.78;4891868;29;20128;-87
2021/05/19 03:39:14;;;;;;;7.15;1.88;;;;;;;13.82;61.08;93635.31;4891196;29;20092;-85
2021/05/19 03:41:40;;;;;;;1.95;1.30;;;;;;;14.16;59.15;93644.34;4893872;29;20063;-87
2021/05/19 03:44:07;;;;;;;4.30;1.02;;;;;;;15.02;56.33;93639.63;4890797;29;20040;-85
2021/05/19 03:46:33;;;;;;;4.43;1.15;;;;;;;15.28;55.58;93636.09;4891988;29;20040;-86
2021/05/19 03:49:00;;;;;;;4.30;1.60;;;;;;;15.57;55.47;93649.41;4890313;29;20050;-88
2021/05/19 03:51:25;;;;;;;4.10;2.10;;;;;;;16.25;53.80;93636.69;4893332;29;20410;-87
2021/05/19 03:53:51;;;;;;;3.72;1.50;;;;;;;16.71;51.98;93625.75;4890883;29;20029;-87
2021/05/19 03:56:17;;;;;;;5.03;2.10;;;;;;;17.17;50.62;93629.16;4884140;29;20593;-87
2021/05/19 03:58:43;;;;;;;3.10;1.70;;;;;;;17.62;49.62;93629.84;4888433;29;20048;-88
2021/05/19 04:01:09;;;;;;;5.38;2.10;;;;;;;18.43;47.21;93623.38;4871664;29;20045;-87
2021/05/19 04:03:35;;;;;;;6.18;2.10;;;;;;;18.43;46.61;93607.31;4890904;29;20032;-87
2021/05/19 04:06:01;;;;;;;3.05;2.40;;;;;;;18.54;47.28;93615.66;4884762;29;20595;-88
2021/05/19 04:08:41;;;;;;;5.22;2.42;;;;;;;18.28;46.70;93629.44;4912966;29;20417;-90
2021/05/19 04:11:08;;;;;;;9.45;2.20;;;;;;;18.66;46.83;93633.56;4906786;29;20580;-89
2021/05/19 04:13:34;;;;;;;6.53;3.13;;;;;;;18.98;45.77;93632.47;4911246;29;20035;-88
2021/05/19 04:16:00;;;;;;;10.40;2.92;;;;;;;19.11;44.97;93604.50;4912339;29;20040;-90
2021/05/19 04:18:26;;;;;;;8.63;2.65;;;;;;;19.18;44.98;93634.13;4909966;29;20040;-88
2021/05/19 04:20:52;;;;;;;3.55;2.10;;;;;;;19.65;44.19;93623.41;4910974;29;20487;-88
2021/05/19 04:23:21;;;;;;;9.40;3.20;;;;;;;19.78;43.24;93624.09;4913291;29;20495;-89
2021/05/19 04:25:46;;;;;;;9.90;3.70;;;;;;;20.07;43.36;93634.28;4911253;29;20052;-88
2021/05/19 04:28:12;;;;;;;9.48;5.65;;;;;;;20.28;42.72;93621.28;4912250;29;20043;-87
2021/05/19 04:30:37;;;;;;;12.55;3.95;;;;;;;20.01;42.59;93632.22;4911184;29;20032;-89
2021/05/19 04:33:04;;;;;;;11.18;5.93;;;;;;;19.55;43.97;93631.22;4909731;29;20048;-88
2021/05/19 04:35:31;;;;;;;11.70;4.00;;;;;;;19.72;43.83;93630.81;4897989;29;20345;-88
2021/05/19 04:37:56;;;;;;;7.78;3.55;;;;;;;19.68;43.58;93638.81;4911739;29;20044;-88
2021/05/19 04:40:22;;;;;;;12.43;3.30;;;;;;;20.10;42.95;93652.34;4909514;29;20095;-87
2021/05/19 04:42:48;;;;;;;8.05;3.30;;;;;;;20.94;41.57;93644.44;4910317;29;20508;-88
2021/05/19 04:45:14;;;;;;;15.10;3.35;;;;;;;21.87;39.36;93644.84;4907663;29;20069;-88
2021/05/19 04:47:40;;;;;;;8.73;3.50;;;;;;;21.97;38.22;93638.88;4903309;29;20020;-90
2021/05/19 04:50:07;;;;;;;7.05;3.70;;;;;;;22.72;37.46;93624.44;4908944;29;20727;-87
2021/05/19 04:52:33;;;;;;;4.60;2.58;;;;;;;23.43;36.12;93619.72;4910414;29;20047;-87
2021/05/19 04:55:01;;;;;;;4.03;2.60;;;;;;;23.56;35.84;93618.28;4912158;29;20457;-89
2021/05/19 04:57:27;;;;;;;7.78;2.88;;;;;;;24.09;35.40;93618.63;4910856;29;20051;-88
2021/05/19 04:59:53;;;;;;;11.90;3.17;;;;;;;24.73;34.69;93607.38;4909870;29;20023;-88
2021/05/19 05:02:18;;;;;;;9.25;3.33;;;;;;;25.03;33.46;93608.63;4911321;29;20024;-91
2021/05/19 05:04:44;;;;;;;7.95;2.85;;;;;;;25.33;32.64;93597.47;4912241;29;20122;-90
2021/05/19 05:07:09;;;;;;;7.38;2.85;;;;;;;25.35;33.07;93600.56;4910371;29;20064;-87
2021/05/19 05:09:35;;;;;;;5.28;2.30;;;;;;;26.22;31.46;93587.34;4910573;29;20048;-89
2021/05/19 05:12:00;;;;;;;10.77;2.80;;;;;;;25.95;31.94;93591.63;4912019;29;20077;-87
2021/05/19 05:14:26;;;;;;;7.15;3.10;;;;;;;26.30;31.33;93561.00;4912400;29;20071;-90
2021/05/19 05:16:51;;;;;;;6.38;2.40;;;;;;;26.58;30.41;93598.06;4911656;29;20044;-92
2021/05/19 05:19:17;;;;;;;5.18;2.85;;;;;;;26.65;30.79;93593.38;4911072;29;20047;-89
2021/05/19 05:21:42;;;;;;;6.80;2.30;;;;;;;26.66;30.79;93588.72;4911095;29;20043;-91
2021/05/19 05:24:08;;;;;;;8.13;2.78;;;;;;;26.72;30.63;93593.34;4910458;29;20040;-92
2021/05/19 05:26:33;;;;;;;3.95;2.35;;;;;;;26.69;30.04;93583.28;4914086;29;20533;-91
2021/05/19 05:28:59;;;;;;;7.40;2.65;;;;;;;26.93;30.31;93611.44;4909252;29;20131;-88
2021/05/19 05:31:24;;;;;;;7.40;2.40;;;;;;;28.19;28.94;93602.75;4909842;29;20134;-90
2021/05/19 05:33:51;;;;;;;5.35;2.85;;;;;;;28.00;28.53;93620.34;4911036;29;20040;-88
2021/05/19 05:36:17;;;;;;;8.13;2.70;;;;;;;28.47;28.43;93615.25;4911691;29;20048;-91
2021/05/19 05:38:42;;;;;;;7.45;3.03;;;;;;;29.23;27.56;93613.91;4915590;29;20034;-89
2021/05/19 05:41:07;;;;;;;8.00;2.78;;;;;;;30.27;26.58;93616.53;4916397;29;20060;-88
2021/05/19 05:43:33;;;;;;;11.90;2.80;;;;;;;31.32;24.84;93610.94;4912650;28;20106;-88
2021/05/19 05:45:58;;;;;;;6.72;2.03;;;;;;;31.17;24.65;93617.91;4915273;29;20536;-90
2021/05/19 05:48:24;;;;;;;6.28;2.80;;;;;;;30.92;24.65;93596.59;4914771;29;20051;-88
2021/05/19 05:50:49;;;;;;;10.15;2.38;;;;;;;32.35;22.58;93607.69;4916293;29;20059;-89
2021/05/19 05:53:14;;;;;;;8.00;1.92;;;;;;;32.72;22.23;93615.28;4915892;29;20024;-92
2021/05/19 05:55:40;;;;;;;4.32;2.10;;;;;;;32.06;22.43;93610.38;4914876;29;20044;-90
2021/05/19 05:58:05;;;;;;;8.75;2.25;;;;;;;32.10;22.45;93603.66;4915851;29;20126;-91
2021/05/19 06:00:31;;;;;;;3.92;2.05;;;;;;;32.79;22.09;93617.84;4916709;29;20035;-90
2021/05/19 06:02:56;;;;;;;4.07;2.15;;;;;;;31.90;23.43;93610.38;4913122;29;20045;-91
2021/05/19 06:05:22;;;;;;;7.35;1.80;;;;;;;31.49;22.67;93591.81;4914788;29;20468;-90
2021/05/19 06:07:47;;;;;;;7.05;2.20;;;;;;;32.65;22.61;93590.84;4915675;29;20040;-92
2021/05/19 06:10:13;;;;;;;4.72;1.63;;;;;;;32.42;22.13;93585.59;4913367;29;20055;-92
2021/05/19 06:12:39;;;;;;;3.63;1.10;;;;;;;31.93;21.83;93604.81;4911818;29;20042;-90
2021/05/19 06:15:05;;;;;;;8.38;1.20;;;;;;;32.32;22.53;93606.56;4914684;29;20035;-89
2021/05/19 06:17:31;;;;;;;3.50;1.40;;;;;;;31.82;21.72;93613.28;4915888;29;20067;-91
2021/05/19 06:19:56;;;;;;;5.25;2.17;;;;;;;31.78;22.61;93600.91;4914248;29;20179;-92
2021/05/19 06:22:22;;;;;;;4.85;2.25;;;;;;;31.98;22.56;93590.63;4912650;29;20493;-93
2021/05/19 06:24:47;;;;;;;9.23;2.10;;;;;;;31.54;23.30;93596.78;4913883;29;20043;-91
2021/05/19 06:27:13;;;;;;;5.18;2.33;;;;;;;31.99;23.09;93583.97;4913377;29;20036;-89
2021/05/19 06:29:40;;;;;;;7.30;2.25;;;;;;;31.95;23.07;93596.97;4915765;29;20024;-88
2021/05/19 06:32:06;;;;;;;5.97;2.03;;;;;;;32.14;22.47;93589.88;4913890;29;20805;-89
2021/05/19 06:34:32;;;;;;;5.13;2.00;;;;;;;32.58;22.67;93596.50;4911771;29;20143;-91
2021/05/19 06:36:57;;;;;;;9.63;2.55;;;;;;;32.45;22.01;93571.09;4914390;29;20134;-92
2021/05/19 06:39:23;;;;;;;5.68;2.22;;;;;;;33.06;22.54;93604.53;4913654;29;20032;-90
2021/05/19 06:41:50;;;;;;;10.57;2.60;;;;;;;33.61;20.48;93594.25;4911339;29;20273;-91
2021/05/19 06:44:17;;;;;;;12.50;2.20;;;;;;;33.96;21.04;93586.13;4896794;29;20813;-88
2021/05/19 06:46:43;;;;;;;8.38;2.33;;;;;;;32.71;21.75;93580.13;4904171;29;20047;-91
2021/05/19 06:49:08;;;;;;;4.95;2.15;;;;;;;31.80;22.04;93565.72;4911837;29;20054;-91
2021/05/19 06:51:34;;;;;;;9.82;2.35;;;;;;;30.96;23.34;93580.13;4904994;29;20048;-89
2021/05/19 06:54:00;;;;;;;5.15;2.10;;;;;;;30.91;23.77;93583.34;4912774;29;21079;-91
2021/05/19 06:56:27;;;;;;;7.72;2.78;;;;;;;30.04;24.75;93560.13;4917127;29;20114;-90
2021/05/19 06:58:53;;;;;;;7.38;1.98;;;;;;;29.30;25.52;93570.25;4911360;29;20043;-91
2021/05/19 07:01:18;;;;;;;3.88;2.22;;;;;;;28.02;26.62;93546.63;4913736;29;20042;-90
2021/05/19 07:03:44;;;;;;;3.72;2.00;;;;;;;27.70;27.22;93574.13;4912612;29;20135;-90
2021/05/19 07:06:09;;;;;;;7.97;2.30;;;;;;;27.58;27.45;93563.72;4914697;29;20058;-91
2021/05/19 07:08:35;;;;;;;5.35;1.80;;;;;;;26.63;28.20;93568.59;4902855;29;20031;-91
2021/05/19 07:11:00;;;;;;;3.97;1.63;;;;;;;26.12;29.59;93563.75;4912921;29;20043;-91
2021/05/19 07:13:29;;;;;;;7.20;2.45;;;;;;;26.02;29.97;93577.31;4913396;29;20684;-91
2021/05/19 07:15:55;;;;;;;9.95;2.00;;;;;;;26.26;30.19;93571.84;4914515;29;20097;-91
2021/05/19 07:18:21;;;;;;;4.50;1.52;;;;;;;26.59;29.55;93565.13;4913170;29;20047;-91
2021/05/19 07:20:47;;;;;;;7.75;2.08;;;;;;;26.81;29.09;93567.72;4914555;29;20024;-92
2021/05/19 07:23:12;;;;;;;5.30;1.70;;;;;;;27.73;27.88;93559.72;4914373;29;20049;-87
2021/05/19 07:25:39;;;;;;;7.05;2.08;;;;;;;27.95;27.07;93552.91;4912042;29;20604;-91
2021/05/19 07:28:05;;;;;;;9.63;2.05;;;;;;;27.84;27.03;93546.03;4912664;29;20031;-88
2021/05/19 07:30:31;;;;;;;10.55;2.47;;;;;;;27.52;27.52;93549.03;4912389;29;20040;-93
2021/05/19 07:32:56;;;;;;;5.68;1.90;;;;;;;26.96;27.90;93536.69;4913126;29;20477;-92
2021/05/19 07:35:22;;;;;;;6.75;1.55;;;;;;;26.45;28.55;93513.72;4899647;29;20027;-91
2021/05/19 07:37:49;;;;;;;5.18;1.52;;;;;;;26.22;29.37;93521.56;4915488;29;20127;-92
2021/05/19 07:40:14;;;;;;;11.10;1.92;;;;;;;25.77;30.17;93488.03;4913885;29;20047;-92
2021/05/19 07:42:40;;;;;;;7.97;2.13;;;;;;;26.93;28.75;93511.13;4913391;29;20433;-91
2021/05/19 07:45:06;;;;;;;10.43;2.65;;;;;;;27.14;28.62;93496.63;4914609;29;20035;-91
2021/05/19 07:47:31;;;;;;;5.68;1.73;;;;;;;27.22;29.16;93505.50;4916877;29;20030;-93
2021/05/19 07:49:57;;;;;;;3.30;1.92;;;;;;;27.14;28.52;93516.41;4914779;29;20477;-92
2021/05/19 07:52:23;;;;;;;4.53;2.05;;;;;;;27.53;29.15;93509.88;4911344;29;20311;-90
2021/05/19 07:54:48;;;;;;;12.30;3.97;;;;;;;28.49;27.23;93490.59;4913288;29;20485;-91
2021/05/19 07:59:45;;;;;;;9.10;3.05;;;;;;;29.43;26.14;93478.69;4914223;29;20456;-91
2021/05/19 08:02:12;;;;;;;7.63;2.95;;;;;;;30.12;25.96;93475.09;4913090;29;20122;-92
2021/05/19 08:04:38;;;;;;;10.95;3.00;;;;;;;30.93;24.34;93483.53;4913668;29;20044;-93
2021/05/19 08:07:05;;;;;;;6.18;3.05;;;;;;;31.33;24.45;93484.13;4911372;29;20171;-90
2021/05/19 08:09:31;;;;;;;4.82;2.72;;;;;;;32.41;22.83;93482.88;4911677;29;20069;-93
2021/05/19 08:11:57;;;;;;;10.65;2.67;;;;;;;32.74;22.47;93489.75;4913149;29;20036;-91
2021/05/19 08:14:26;;;;;;;9.43;2.75;;;;;;;32.09;22.14;93490.00;4917692;29;20035;-91
2021/05/19 08:16:51;;;;;;;8.32;2.17;;;;;;;32.96;22.06;93476.94;4912641;29;20039;-89
2021/05/19 08:19:17;;;;;;;10.85;2.35;;;;;;;34.44;19.69;93489.63;4912179;29;20527;-93
2021/05/19 08:21:43;;;;;;;5.55;2.33;;;;;;;33.92;19.41;93484.78;4912262;29;20097;-91
2021/05/19 08:24:09;;;;;;;3.75;1.30;;;;;;;35.01;18.53;93495.72;4909814;29;20050;-92
2021/05/19 08:26:34;;;;;;;5.85;1.65;;;;;;;35.33;18.71;93492.53;4913007;29;20246;-90
2021/05/19 08:29:00;;;;;;;4.15;1.40;;;;;;;36.12;17.44;93484.56;4912088;29;20074;-91
2021/05/19 08:31:25;;;;;;;5.35;1.80;;;;;;;35.87;17.41;93475.38;4912995;29;20313;-93
2021/05/19 08:33:52;;;;;;;3.47;1.55;;;;;;;36.19;17.97;93482.28;4895821;29;20044;-90
2021/05/19 08:36:17;;;;;;;3.45;1.40;;;;;;;34.72;18.82;93482.34;4911226;29;20568;-92
2021/05/19 08:38:43;;;;;;;6.40;1.70;;;;;;;34.13;19.70;93464.09;4913296;29;20032;-92
2021/05/19 08:41:09;;;;;;;3.45;1.23;;;;;;;34.38;18.83;93450.25;4914571;29;20024;-89
2021/05/19 08:43:35;;;;;;;4.68;1.65;;;;;;;34.03;19.32;93467.97;4911763;29;20444;-90
2021/05/19 08:46:07;;;;;;;3.53;1.55;;;;;;;34.89;18.93;93464.44;4910639;29;20044;-93
2021/05/19 08:48:33;;;;;;;5.40;1.65;;;;;;;35.61;18.79;93471.34;4913566;29;20052;-91
2021/05/19 08:50:59;;;;;;;9.23;1.75;;;;;;;35.45;18.10;93458.66;4912514;29;20122;-88
2021/05/19 08:53:26;;;;;;;5.18;1.30;;;;;;;34.54;18.77;93443.81;4913424;29;20035;-91
2021/05/19 08:55:52;;;;;;;5.13;1.48;;;;;;;34.60;19.51;93461.22;4912890;29;20048;-90
2021/05/19 08:58:17;;;;;;;5.57;1.33;;;;;;;34.42;18.58;93447.38;4909179;29;20075;-89
2021/05/19 09:00:43;;;;;;;3.97;1.20;;;;;;;34.27;18.65;93463.59;4910021;29;20970;-91
2021/05/19 09:03:13;;;;;;;4.20;1.30;;;;;;;35.03;19.44;93469.38;4909777;29;20563;-91
2021/05/19 09:05:44;;;;;;;12.48;2.35;;;;;;;35.29;18.68;93447.16;4912154;29;20052;-92
2021/05/19 09:08:13;;;;;;;5.93;1.02;;;;;;;35.62;18.27;93468.16;4894390;29;20098;-88
2021/05/19 09:10:41;;;;;;;3.38;1.20;;;;;;;35.45;18.36;93442.16;4909657;29;20044;-91
2021/05/19 09:13:07;;;;;;;5.03;1.30;;;;;;;35.72;18.71;93457.19;4915160;29;20048;-91
2021/05/19 09:15:49;;;;;;;7.28;1.98;;;;;;;34.85;18.41;93452.03;4915708;29;20046;-89
2021/05/19 09:18:14;;;;;;;2.88;1.23;;;;;;;33.83;19.36;93449.84;4898633;29;20531;-90
2021/05/19 09:20:44;;;;;;;5.90;1.73;;;;;;;33.58;20.08;93458.13;4915321;29;20032;-84
2021/05/19 09:23:16;;;;;;;8.18;1.58;;;;;;;32.78;20.34;93452.09;4914607;29;20028;-92
2021/05/19 09:25:42;;;;;;;8.45;2.10;;;;;;;31.89;21.92;93437.44;4913521;29;20115;-94
2021/05/19 09:28:08;;;;;;;6.72;1.70;;;;;;;30.66;23.64;93446.72;4914520;29;20127;-90
2021/05/19 09:30:45;;;;;;;6.45;2.17;;;;;;;29.98;23.84;93464.47;4915717;29;20048;-91
2021/05/19 09:33:18;;;;;;;4.50;1.63;;;;;;;29.00;25.08;93453.34;4912462;28;20441;-89
2021/05/19 09:35:46;;;;;;;7.38;1.50;;;;;;;29.02;26.18;93448.28;4899870;29;20024;-90
2021/05/19 09:38:29;;;;;;;6.78;1.70;;;;;;;28.44;25.65;93447.56;4915129;29;20035;-87
2021/05/19 09:41:35;;;;;;;10.70;2.40;;;;;;;27.71;26.86;93439.13;4912034;29;20039;-90
2021/05/19 09:44:01;;;;;;;8.57;1.70;;;;;;;27.17;28.01;93439.63;4875764;29;20056;-90
2021/05/19 09:49:22;;;;;;;8.32;2.10;;;;;;;26.44;28.48;93447.13;4903485;29;20056;-91
2021/05/19 09:51:54;;;;;;;6.57;2.28;;;;;;;26.53;28.34;93449.41;4915657;29;20051;-85
2021/05/19 09:54:33;;;;;;;14.35;2.13;;;;;;;25.98;29.03;93452.00;4899141;29;20623;-89
2021/05/19 09:57:04;;;;;;;6.15;1.73;;;;;;;26.30;28.67;93439.88;4913016;29;20767;-91
2021/05/19 09:59:30;;;;;;;3.63;1.48;;;;;;;25.96;29.85;93440.78;4915900;29;20055;-91
2021/05/19 10:02:00;;;;;;;10.02;1.73;;;;;;;25.79;29.54;93439.72;4913738;29;20079;-90
2021/05/19 10:04:47;;;;;;;7.18;1.50;;;;;;;25.54;30.25;93423.53;4914410;29;20067;-91
2021/05/19 10:07:16;;;;;;;5.88;1.70;;;;;;;25.25;30.39;93401.19;4892713;29;20049;-90
2021/05/19 10:09:41;;;;;;;4.28;2.03;;;;;;;25.67;30.05;93415.78;4886284;29;20040;-88
2021/05/19 10:12:08;;;;;;;10.48;1.98;;;;;;;26.02;29.36;93420.25;4890240;29;20116;-89
2021/05/19 10:14:36;;;;;;;10.40;1.75;;;;;;;25.92;30.17;93411.03;4898514;29;20119;-89
2021/05/19 10:17:13;;;;;;;3.55;1.98;;;;;;;25.55;31.17;93394.56;4894279;29;20048;-89
2021/05/19 10:20:01;;;;;;;5.63;2.03;;;;;;;25.89;30.89;93406.41;4893695;29;20063;-90
2021/05/19 10:22:28;;;;;;;5.70;1.73;;;;;;;25.61;30.66;93391.06;4893473;29;20478;-91
2021/05/19 10:25:19;;;;;;;4.28;1.27;;;;;;;25.62;31.75;93391.81;4893599;29;20176;-90
2021/05/19 10:27:48;;;;;;;6.68;1.85;;;;;;;25.31;30.66;93399.66;4892171;29;20040;-89
2021/05/19 10:30:35;;;;;;;5.35;1.45;;;;;;;25.54;30.27;93379.47;4893750;29;20052;-90
2021/05/19 10:33:01;;;;;;;6.70;1.95;;;;;;;25.79;31.00;93380.16;4893148;29;20131;-88
2021/05/19 10:35:32;;;;;;;7.22;1.67;;;;;;;25.65;31.37;93366.69;4896128;29;20031;-91
2021/05/19 10:38:25;;;;;;;5.18;1.60;;;;;;;25.79;30.58;93364.69;4892548;29;20056;-91
2021/05/19 10:40:56;;;;;;;5.75;1.85;;;;;;;26.33;30.15;93362.47;4891493;29;20041;-89
2021/05/19 10:43:41;;;;;;;12.30;2.05;;;;;;;25.77;30.49;93341.88;4883808;29;20076;-89
2021/05/19 10:46:07;;;;;;;7.45;1.58;;;;;;;25.66;31.61;93350.06;4895722;29;20165;-91
2021/05/19 10:48:34;;;;;;;2.20;1.05;;;;;;;25.37;31.03;93332.38;4896674;29;20040;-89
2021/05/19 10:51:28;;;;;;;4.72;1.17;;;;;;;25.48;32.05;93359.38;4894195;29;20050;-90
2021/05/19 11:00:15;;;;;;;2.55;1.67;;;;;;;24.66;33.23;93337.16;4894702;29;20083;-91
2021/05/19 11:05:35;;;;;;;4.05;1.33;;;;;;;24.67;31.99;93336.78;4894151;29;20056;-88
2021/05/19 11:08:06;;;;;;;5.22;1.98;;;;;;;25.04;32.91;93341.75;4894320;29;20044;-93
2021/05/19 11:10:38;;;;;;;4.40;1.77;;;;;;;24.84;32.89;93324.38;4897322;29;20115;-89
2021/05/19 11:13:04;;;;;;;9.85;1.90;;;;;;;25.14;33.42;93330.16;4880137;29;20034;-90
2021/05/19 11:21:22;;;;;;;7.47;1.27;;;;;;;24.26;34.47;93301.31;4893909;29;20144;-91
2021/05/19 11:24:07;;;;;;;5.75;1.88;;;;;;;24.50;35.53;93319.44;4895898;29;20040;-91
2021/05/19 11:26:44;;;;;;;7.60;1.67;;;;;;;24.59;33.53;93322.50;4897225;29;20040;-91
2021/05/19 11:29:11;;;;;;;3.70;1.63;;;;;;;24.37;32.79;93310.19;4895255;29;20036;-87
2021/05/19 11:31:44;;;;;;;6.80;1.35;;;;;;;24.67;33.30;93300.88;4895324;29;20513;-89
2021/05/19 11:34:11;;;;;;;4.72;1.35;;;;;;;24.49;32.54;93295.50;4897507;29;20016;-91
2021/05/19 11:36:52;;;;;;;6.22;1.27;;;;;;;24.69;32.34;93285.03;4893366;29;20040;-91
2021/05/19 11:39:43;;;;;;;4.32;1.30;;;;;;;24.97;31.61;93282.31;4878581;29;20048;-90
2021/05/19 11:42:10;;;;;;;6.38;1.50;;;;;;;25.15;31.57;93279.53;4876976;29;20167;-91
2021/05/19 11:45:06;;;;;;;6.03;1.35;;;;;;;25.42;32.12;93275.16;4892303;29;20044;-88
2021/05/19 11:47:31;;;;;;;5.18;1.38;;;;;;;25.62;31.14;93267.34;4890558;29;20041;-87
2021/05/19 11:50:16;;;;;;;5.15;1.30;;;;;;;25.81;30.93;93258.72;4892686;29;20051;-90
2021/05/19 11:52:56;;;;;;;6.97;1.08;;;;;;;25.88;29.09;93262.16;4889931;29;20465;-90
2021/05/19 11:55:25;;;;;;;3.80;1.10;;;;;;;25.66;30.45;93243.75;4892305;29;20500;-91